F/v_l'omerta — FHXG — position and weather

sailwx.info

Track history (hours):
 
Tides and Currents Weather Stations Pressure Air Temp Water Temp Dewpoint Dewpoint Depression Visibility Wind Speed Wind Dir Waves Ship Positions

F/v_l'omerta

Last reported at 2016-May-01 00:33 UTC. Time now 2016-May-02 05:58 UTC.
Position N 46°21' W 002°00'.

Length 18 m.

Type: Fishing. MMSI: 227903000.

Date/timePositionNaut miles runAvg speedWind from/ knotsBaromVisibWave heightAir tempDewpointWater temp
2016-May-01 00:33N 46°21' W 002°00'10 9.5
2016-Apr-30 23:33N 46°27' W 001°49'3 3.1
2016-Apr-30 22:33N 46°30' W 001°47'0 0.0
2016-Apr-30 21:34N 46°30' W 001°47'0 0.0
2016-Apr-30 20:33N 46°30' W 001°47'0 0.0
2016-Apr-30 19:33N 46°30' W 001°47'0 0.0
2016-Apr-30 18:33N 46°30' W 001°47'0 0.0
2016-Apr-30 17:33N 46°30' W 001°47'0 0.0
2016-Apr-30 16:33N 46°30' W 001°47'0 0.0
2016-Apr-30 15:33N 46°30' W 001°47'0 0.0
2016-Apr-30 14:34N 46°30' W 001°47'0 0.0
2016-Apr-30 13:33N 46°30' W 001°47'0 0.0
2016-Apr-30 12:34N 46°30' W 001°47'0 0.0
2016-Apr-30 11:33N 46°30' W 001°47'0 0.0
2016-Apr-30 10:33N 46°30' W 001°47'0 0.0
2016-Apr-30 09:33N 46°30' W 001°47'0 0.0
2016-Apr-30 08:33N 46°30' W 001°47'6 6.3
2016-Apr-30 07:33N 46°26' W 001°54'0 0.3
2016-Apr-30 06:33N 46°26' W 001°54'6 6.5
2016-Apr-30 05:33N 46°30' W 001°47'0 0.1
2016-Apr-30 04:33N 46°30' W 001°47'0 0.0
2016-Apr-30 03:33N 46°30' W 001°47'0 0.0
2016-Apr-30 02:33N 46°30' W 001°47'0 0.0
2016-Apr-30 01:33N 46°30' W 001°47'0 0.0
2016-Apr-30 00:34N 46°30' W 001°47'0 0.0
2016-Apr-29 23:34N 46°30' W 001°47'0 0.0
2016-Apr-29 22:33N 46°30' W 001°47'0 0.0
2016-Apr-29 21:33N 46°30' W 001°47'0 0.0
2016-Apr-29 20:34N 46°30' W 001°47'0 0.0
2016-Apr-29 19:34N 46°30' W 001°47'0 0.0
2016-Apr-29 18:33N 46°30' W 001°47'0 0.0
2016-Apr-29 17:33N 46°30' W 001°47'0 0.0
2016-Apr-29 16:34N 46°30' W 001°47'0 0.0
2016-Apr-29 15:33N 46°30' W 001°47'0 0.0
2016-Apr-29 14:33N 46°30' W 001°47'0 0.0
2016-Apr-29 13:33N 46°30' W 001°47'0 0.0
2016-Apr-29 12:33N 46°30' W 001°47'0 0.0
2016-Apr-29 11:34N 46°30' W 001°47'0 0.0
2016-Apr-29 10:34N 46°30' W 001°47'0 0.0
2016-Apr-29 09:33N 46°30' W 001°47'0 0.1
2016-Apr-29 08:33N 46°30' W 001°47'0 0.0
2016-Apr-29 07:33N 46°30' W 001°47'0 0.0
2016-Apr-29 06:34N 46°30' W 001°47'0 0.0
2016-Apr-29 05:33N 46°30' W 001°47'0 0.0
2016-Apr-29 04:33N 46°30' W 001°47'0 0.0
2016-Apr-29 03:33N 46°30' W 001°47'0 0.0
2016-Apr-29 02:33N 46°30' W 001°47'0 0.0
2016-Apr-29 01:34N 46°30' W 001°47'0 0.0
2016-Apr-29 00:33N 46°30' W 001°47'0 0.0
2016-Apr-28 23:33N 46°30' W 001°47'0 0.0
2016-Apr-28 22:34N 46°30' W 001°47'0 0.0
2016-Apr-28 21:33N 46°30' W 001°47'0 0.0
2016-Apr-28 20:33N 46°30' W 001°47'0 0.0
2016-Apr-28 19:34N 46°30' W 001°47'0 0.0
2016-Apr-28 18:33N 46°30' W 001°47'2 1.6
2016-Apr-28 17:33N 46°28' W 001°48'10 9.8
2016-Apr-28 16:33N 46°26' W 002°02'  
2016-Apr-25 07:14N 46°33' W 002°19'6 9.2
2016-Apr-25 06:33N 46°31' W 002°10'16 7.3
2016-Apr-25 04:22N 46°30' W 001°47'0 0.1
2016-Apr-25 03:33N 46°30' W 001°47'0 0.0
2016-Apr-25 02:33N 46°30' W 001°47'0 0.0
2016-Apr-25 01:33N 46°30' W 001°47'0 0.0
2016-Apr-25 00:33N 46°30' W 001°47'0 0.0
2016-Apr-24 23:33N 46°30' W 001°47'0 0.0
2016-Apr-24 22:33N 46°30' W 001°47'0 0.0
2016-Apr-24 21:33N 46°30' W 001°47'0 0.0
2016-Apr-24 20:33N 46°30' W 001°47'0 0.0
2016-Apr-24 19:33N 46°30' W 001°47'0 0.0
2016-Apr-24 18:33N 46°30' W 001°47'0 0.0
2016-Apr-24 17:33N 46°30' W 001°47'0 0.0
2016-Apr-24 16:33N 46°30' W 001°47'0 0.0
2016-Apr-24 15:33N 46°30' W 001°47'0 0.0
2016-Apr-24 14:33N 46°30' W 001°47'0 0.0
2016-Apr-24 13:33N 46°30' W 001°47'0 0.0
2016-Apr-24 12:33N 46°30' W 001°47'0 0.0
2016-Apr-24 11:33N 46°30' W 001°47'0 0.0
2016-Apr-24 10:33N 46°30' W 001°47'0 0.0
2016-Apr-24 09:33N 46°30' W 001°47'0 0.0
2016-Apr-24 08:33N 46°30' W 001°47'0 0.0
2016-Apr-24 07:33N 46°30' W 001°47'0 0.0
2016-Apr-24 06:33N 46°30' W 001°47'0 0.0
2016-Apr-24 05:33N 46°30' W 001°47'0 0.0
2016-Apr-24 04:33N 46°30' W 001°47'0 0.0
2016-Apr-24 03:33N 46°30' W 001°47'0 0.0
2016-Apr-24 02:33N 46°30' W 001°47'0 0.0
2016-Apr-24 01:33N 46°30' W 001°47'0 0.0
2016-Apr-24 00:33N 46°30' W 001°47'0 0.0
2016-Apr-23 23:33N 46°30' W 001°47'0 0.0
2016-Apr-23 22:33N 46°30' W 001°47'0 0.0
2016-Apr-23 21:33N 46°30' W 001°47'0 0.0
2016-Apr-23 20:33N 46°30' W 001°47'0 0.0
2016-Apr-23 19:33N 46°30' W 001°47'0 0.0
2016-Apr-23 18:33N 46°30' W 001°47'0 0.0
2016-Apr-23 17:33N 46°30' W 001°47'0 0.0
2016-Apr-23 16:33N 46°30' W 001°47'0 0.0
2016-Apr-23 15:33N 46°30' W 001°47'0 0.0
2016-Apr-23 14:33N 46°30' W 001°47'0 0.0
2016-Apr-23 13:33N 46°30' W 001°47'0 0.0
2016-Apr-23 12:33N 46°30' W 001°47'0 0.0
2016-Apr-23 11:33N 46°30' W 001°47'0 0.0
2016-Apr-23 10:33N 46°30' W 001°47'0 0.0
2016-Apr-23 09:33N 46°30' W 001°47'0 0.0
2016-Apr-23 08:33N 46°30' W 001°47'0 0.0
2016-Apr-22 14:23N 46°30' W 001°47'0 0.0
2016-Apr-22 13:33N 46°30' W 001°47'0 0.0
2016-Apr-22 12:33N 46°30' W 001°47'0 0.0
2016-Apr-22 11:32N 46°30' W 001°47'0 0.0
2016-Apr-22 10:34N 46°30' W 001°47'0 0.0
2016-Apr-22 09:33N 46°30' W 001°47'0 0.0
2016-Apr-22 08:33N 46°30' W 001°47'0 0.0
2016-Apr-22 07:33N 46°30' W 001°47'0 0.0
2016-Apr-22 06:33N 46°30' W 001°47'  
Track history (hours):
 
Tides and Currents Weather Stations Pressure Air Temp Water Temp Dewpoint Dewpoint Depression Visibility Wind Speed Wind Dir Waves Ship Positions

F/v_l'omerta

Last reported at 2016-May-01 00:33 UTC. Time now 2016-May-02 05:58 UTC.
Position N 46°21' W 002°00'.

Length 18 m.

Type: Fishing. MMSI: 227903000.

Date/timePositionNaut miles runAvg speedWind from/ knotsBaromVisibWave heightAir tempDewpointWater temp
2016-May-01 00:33N 46°21' W 002°00'10 9.5
2016-Apr-30 23:33N 46°27' W 001°49'3 3.1
2016-Apr-30 22:33N 46°30' W 001°47'0 0.0
2016-Apr-30 21:34N 46°30' W 001°47'0 0.0
2016-Apr-30 20:33N 46°30' W 001°47'0 0.0
2016-Apr-30 19:33N 46°30' W 001°47'0 0.0
2016-Apr-30 18:33N 46°30' W 001°47'0 0.0
2016-Apr-30 17:33N 46°30' W 001°47'0 0.0
2016-Apr-30 16:33N 46°30' W 001°47'0 0.0
2016-Apr-30 15:33N 46°30' W 001°47'0 0.0
2016-Apr-30 14:34N 46°30' W 001°47'0 0.0
2016-Apr-30 13:33N 46°30' W 001°47'0 0.0
2016-Apr-30 12:34N 46°30' W 001°47'0 0.0
2016-Apr-30 11:33N 46°30' W 001°47'0 0.0
2016-Apr-30 10:33N 46°30' W 001°47'0 0.0
2016-Apr-30 09:33N 46°30' W 001°47'0 0.0
2016-Apr-30 08:33N 46°30' W 001°47'6 6.3
2016-Apr-30 07:33N 46°26' W 001°54'0 0.3
2016-Apr-30 06:33N 46°26' W 001°54'6 6.5
2016-Apr-30 05:33N 46°30' W 001°47'0 0.1
2016-Apr-30 04:33N 46°30' W 001°47'0 0.0
2016-Apr-30 03:33N 46°30' W 001°47'0 0.0
2016-Apr-30 02:33N 46°30' W 001°47'0 0.0
2016-Apr-30 01:33N 46°30' W 001°47'0 0.0
2016-Apr-30 00:34N 46°30' W 001°47'0 0.0
2016-Apr-29 23:34N 46°30' W 001°47'0 0.0
2016-Apr-29 22:33N 46°30' W 001°47'0 0.0
2016-Apr-29 21:33N 46°30' W 001°47'0 0.0
2016-Apr-29 20:34N 46°30' W 001°47'0 0.0
2016-Apr-29 19:34N 46°30' W 001°47'0 0.0
2016-Apr-29 18:33N 46°30' W 001°47'0 0.0
2016-Apr-29 17:33N 46°30' W 001°47'0 0.0
2016-Apr-29 16:34N 46°30' W 001°47'0 0.0
2016-Apr-29 15:33N 46°30' W 001°47'0 0.0
2016-Apr-29 14:33N 46°30' W 001°47'0 0.0
2016-Apr-29 13:33N 46°30' W 001°47'0 0.0
2016-Apr-29 12:33N 46°30' W 001°47'0 0.0
2016-Apr-29 11:34N 46°30' W 001°47'0 0.0
2016-Apr-29 10:34N 46°30' W 001°47'0 0.0
2016-Apr-29 09:33N 46°30' W 001°47'0 0.1
2016-Apr-29 08:33N 46°30' W 001°47'0 0.0
2016-Apr-29 07:33N 46°30' W 001°47'0 0.0
2016-Apr-29 06:34N 46°30' W 001°47'0 0.0
2016-Apr-29 05:33N 46°30' W 001°47'0 0.0
2016-Apr-29 04:33N 46°30' W 001°47'0 0.0
2016-Apr-29 03:33N 46°30' W 001°47'0 0.0
2016-Apr-29 02:33N 46°30' W 001°47'0 0.0
2016-Apr-29 01:34N 46°30' W 001°47'0 0.0
2016-Apr-29 00:33N 46°30' W 001°47'0 0.0
2016-Apr-28 23:33N 46°30' W 001°47'0 0.0
2016-Apr-28 22:34N 46°30' W 001°47'0 0.0
2016-Apr-28 21:33N 46°30' W 001°47'0 0.0
2016-Apr-28 20:33N 46°30' W 001°47'0 0.0
2016-Apr-28 19:34N 46°30' W 001°47'0 0.0
2016-Apr-28 18:33N 46°30' W 001°47'2 1.6
2016-Apr-28 17:33N 46°28' W 001°48'10 9.8
2016-Apr-28 16:33N 46°26' W 002°02'  
2016-Apr-25 07:14N 46°33' W 002°19'6 9.2
2016-Apr-25 06:33N 46°31' W 002°10'16 7.3
2016-Apr-25 04:22N 46°30' W 001°47'0 0.1
2016-Apr-25 03:33N 46°30' W 001°47'0 0.0
2016-Apr-25 02:33N 46°30' W 001°47'0 0.0
2016-Apr-25 01:33N 46°30' W 001°47'0 0.0
2016-Apr-25 00:33N 46°30' W 001°47'0 0.0
2016-Apr-24 23:33N 46°30' W 001°47'0 0.0
2016-Apr-24 22:33N 46°30' W 001°47'0 0.0
2016-Apr-24 21:33N 46°30' W 001°47'0 0.0
2016-Apr-24 20:33N 46°30' W 001°47'0 0.0
2016-Apr-24 19:33N 46°30' W 001°47'0 0.0
2016-Apr-24 18:33N 46°30' W 001°47'0 0.0
2016-Apr-24 17:33N 46°30' W 001°47'0 0.0
2016-Apr-24 16:33N 46°30' W 001°47'0 0.0
2016-Apr-24 15:33N 46°30' W 001°47'0 0.0
2016-Apr-24 14:33N 46°30' W 001°47'0 0.0
2016-Apr-24 13:33N 46°30' W 001°47'0 0.0
2016-Apr-24 12:33N 46°30' W 001°47'0 0.0
2016-Apr-24 11:33N 46°30' W 001°47'0 0.0
2016-Apr-24 10:33N 46°30' W 001°47'0 0.0
2016-Apr-24 09:33N 46°30' W 001°47'0 0.0
2016-Apr-24 08:33N 46°30' W 001°47'0 0.0
2016-Apr-24 07:33N 46°30' W 001°47'0 0.0
2016-Apr-24 06:33N 46°30' W 001°47'0 0.0
2016-Apr-24 05:33N 46°30' W 001°47'0 0.0
2016-Apr-24 04:33N 46°30' W 001°47'0 0.0
2016-Apr-24 03:33N 46°30' W 001°47'0 0.0
2016-Apr-24 02:33N 46°30' W 001°47'0 0.0
2016-Apr-24 01:33N 46°30' W 001°47'0 0.0
2016-Apr-24 00:33N 46°30' W 001°47'0 0.0
2016-Apr-23 23:33N 46°30' W 001°47'0 0.0
2016-Apr-23 22:33N 46°30' W 001°47'0 0.0
2016-Apr-23 21:33N 46°30' W 001°47'0 0.0
2016-Apr-23 20:33N 46°30' W 001°47'0 0.0
2016-Apr-23 19:33N 46°30' W 001°47'0 0.0
2016-Apr-23 18:33N 46°30' W 001°47'0 0.0
2016-Apr-23 17:33N 46°30' W 001°47'0 0.0
2016-Apr-23 16:33N 46°30' W 001°47'0 0.0
2016-Apr-23 15:33N 46°30' W 001°47'0 0.0
2016-Apr-23 14:33N 46°30' W 001°47'0 0.0
2016-Apr-23 13:33N 46°30' W 001°47'0 0.0
2016-Apr-23 12:33N 46°30' W 001°47'0 0.0
2016-Apr-23 11:33N 46°30' W 001°47'0 0.0
2016-Apr-23 10:33N 46°30' W 001°47'0 0.0
2016-Apr-23 09:33N 46°30' W 001°47'0 0.0
2016-Apr-23 08:33N 46°30' W 001°47'0 0.0
2016-Apr-22 14:23N 46°30' W 001°47'0 0.0
2016-Apr-22 13:33N 46°30' W 001°47'0 0.0
2016-Apr-22 12:33N 46°30' W 001°47'0 0.0
2016-Apr-22 11:32N 46°30' W 001°47'0 0.0
2016-Apr-22 10:34N 46°30' W 001°47'0 0.0
2016-Apr-22 09:33N 46°30' W 001°47'0 0.0
2016-Apr-22 08:33N 46°30' W 001°47'0 0.0
2016-Apr-22 07:33N 46°30' W 001°47'0 0.0
2016-Apr-22 06:33N 46°30' W 001°47'  

Dump ship's entire track history